Time;durP1;ratioP1;P1;durP2;ratioP2;P2;SDS_P1;SDS_P2;PMS_P1;PMS_P2;Temp;Humidity;BMP_temperature;BMP_pressure;BME280_temperature;BME280_humidity;BME280_pressure;Samples;Min_cycle;Max_cycle;Signal;HPM_P1;HPM_P2
2021/10/01 00:01:36;;;;;;;18.77;11.05;;;;;;;1.00;100.00;102496.05;1791734;80;21662;-53
2021/10/01 00:04:04;;;;;;;34.35;10.18;;;;;;;0.99;100.00;102490.47;1791681;80;21528;-53
2021/10/01 00:06:32;;;;;;;21.42;10.80;;;;;;;0.97;100.00;102495.89;1791716;80;21437;-53
2021/10/01 00:08:59;;;;;;;23.15;10.70;;;;;;;0.96;100.00;102492.45;1791687;80;22228;-53
2021/10/01 00:11:27;;;;;;;18.92;9.23;;;;;;;0.95;100.00;102491.11;1791735;80;21971;-53
2021/10/01 00:13:55;;;;;;;17.32;10.15;;;;;;;0.92;100.00;102493.49;1791689;80;21535;-53
2021/10/01 00:16:23;;;;;;;14.90;9.03;;;;;;;0.90;100.00;102493.81;1791717;80;21493;-53
2021/10/01 00:18:49;;;;;;;18.02;9.90;;;;;;;0.88;100.00;102495.38;1791679;80;20976;-54
2021/10/01 00:21:16;;;;;;;18.67;10.08;;;;;;;0.84;100.00;102495.21;1791867;80;21516;-53
2021/10/01 00:23:43;;;;;;;17.25;9.75;;;;;;;0.82;100.00;102495.94;1791664;80;21139;-54
2021/10/01 00:26:09;;;;;;;22.65;9.58;;;;;;;0.79;100.00;102493.23;1791382;80;20974;-54
2021/10/01 00:28:37;;;;;;;12.35;8.85;;;;;;;0.76;100.00;102495.20;1791931;80;21500;-54
2021/10/01 00:31:03;;;;;;;21.05;9.88;;;;;;;0.75;100.00;102499.82;1791560;80;20963;-54
2021/10/01 00:33:31;;;;;;;19.00;10.25;;;;;;;0.72;100.00;102494.55;1791329;80;20987;-54
2021/10/01 00:35:59;;;;;;;17.52;9.93;;;;;;;0.71;100.00;102489.84;1791958;80;21188;-54
2021/10/01 00:38:28;;;;;;;20.55;9.43;;;;;;;0.72;100.00;102495.83;1791655;80;21521;-54
2021/10/01 00:40:55;;;;;;;15.90;10.03;;;;;;;0.73;100.00;102487.39;1791475;80;21458;-54
2021/10/01 00:43:22;;;;;;;14.10;9.33;;;;;;;0.73;100.00;102494.14;1791671;80;21018;-54
2021/10/01 00:45:49;;;;;;;18.77;10.05;;;;;;;0.74;100.00;102494.63;1791714;80;20924;-54
2021/10/01 00:48:15;;;;;;;21.62;9.08;;;;;;;0.74;100.00;102494.63;1791998;80;21801;-54
2021/10/01 00:50:42;;;;;;;15.65;8.83;;;;;;;0.72;100.00;102488.18;1791929;80;21466;-54
2021/10/01 00:53:08;;;;;;;17.65;8.95;;;;;;;0.70;100.00;102488.50;1791602;80;21016;-54
2021/10/01 00:55:35;;;;;;;17.42;9.20;;;;;;;0.68;100.00;102493.50;1791606;80;20944;-54
2021/10/01 00:58:02;;;;;;;17.52;9.63;;;;;;;0.65;100.00;102492.47;1791516;80;20990;-54
2021/10/01 01:00:29;;;;;;;11.83;8.55;;;;;;;0.66;100.00;102491.27;1762941;80;22039;-54
2021/10/01 01:03:00;;;;;;;15.05;8.93;;;;;;;0.68;100.00;102496.46;1782257;80;20967;-54
2021/10/01 01:06:03;;;;;;;23.47;8.85;;;;;;;0.67;100.00;102494.70;1791857;80;20967;-54
2021/10/01 01:08:39;;;;;;;13.68;8.60;;;;;;;0.65;100.00;102487.37;1791325;80;20897;-54
2021/10/01 01:11:14;;;;;;;13.62;8.95;;;;;;;0.62;100.00;102491.00;1791801;80;21489;-54
2021/10/01 01:13:52;;;;;;;18.17;9.15;;;;;;;0.60;100.00;102493.86;1791609;80;21164;-54
2021/10/01 01:16:22;;;;;;;14.85;9.20;;;;;;;0.55;100.00;102494.49;1791498;80;20923;-54
2021/10/01 01:20:50;;;;;;;23.27;9.35;;;;;;;0.52;100.00;102494.33;1797569;79;22608;-53
2021/10/01 01:23:52;;;;;;;21.97;9.28;;;;;;;0.46;100.00;102504.19;1757521;80;21094;-53
2021/10/01 01:27:08;;;;;;;16.10;10.00;;;;;;;0.43;100.00;102496.38;1757420;81;21229;-52
2021/10/01 01:29:40;;;;;;;19.90;8.90;;;;;;;0.40;100.00;102494.52;1742324;81;20980;-53
2021/10/01 01:32:19;;;;;;;18.55;9.20;;;;;;;0.35;100.00;102499.76;1723123;81;20968;-53
2021/10/01 01:34:49;;;;;;;12.90;8.95;;;;;;;0.33;100.00;102496.62;1757278;81;20983;-54
2021/10/01 01:37:27;;;;;;;14.25;8.73;;;;;;;0.27;100.00;102492.95;1724001;83;21541;-53
2021/10/01 01:39:54;;;;;;;11.63;8.75;;;;;;;0.22;100.00;102494.74;1719271;83;22010;-53
2021/10/01 01:42:21;;;;;;;12.03;8.63;;;;;;;0.16;100.00;102494.41;1723821;83;21029;-53
2021/10/01 01:44:47;;;;;;;14.75;8.75;;;;;;;0.11;100.00;102493.75;1723789;83;21603;-53
2021/10/01 01:47:14;;;;;;;16.05;9.30;;;;;;;0.06;100.00;102490.45;1694910;83;21505;-53
2021/10/01 01:49:43;;;;;;;12.28;8.23;;;;;;;0.02;100.00;102491.96;1723965;83;20935;-53
2021/10/01 01:52:10;;;;;;;13.32;8.88;;;;;;;-0.01;100.00;102494.30;1723728;81;21076;-53
2021/10/01 01:54:36;;;;;;;18.57;9.28;;;;;;;-0.06;100.00;102491.52;1723712;83;20935;-53
2021/10/01 01:57:04;;;;;;;18.57;9.10;;;;;;;-0.12;100.00;102493.70;1724110;83;20927;-53
2021/10/01 01:59:31;;;;;;;19.12;9.58;;;;;;;-0.14;100.00;102496.53;1723841;83;20931;-53
2021/10/01 02:01:58;;;;;;;16.42;8.48;;;;;;;-0.16;100.00;102500.66;1717178;83;21011;-53
2021/10/01 02:04:24;;;;;;;12.37;8.78;;;;;;;-0.20;100.00;102499.62;1715830;83;21148;-53
2021/10/01 02:06:51;;;;;;;18.32;8.78;;;;;;;-0.22;100.00;102502.85;1708637;84;20936;-54
2021/10/01 02:09:18;;;;;;;15.35;9.30;;;;;;;-0.25;100.00;102500.13;1708355;84;21014;-53
2021/10/01 02:11:47;;;;;;;19.75;9.38;;;;;;;-0.26;100.00;102508.55;1708491;84;20951;-53
2021/10/01 02:14:24;;;;;;;17.45;8.98;;;;;;;-0.28;100.00;102501.23;1708367;84;21066;-53
2021/10/01 02:16:55;;;;;;;16.93;9.48;;;;;;;-0.32;100.00;102502.32;1708456;84;20963;-54
2021/10/01 02:19:24;;;;;;;18.98;9.93;;;;;;;-0.34;100.00;102504.28;1705308;83;21027;-54
2021/10/01 02:21:52;;;;;;;13.80;9.65;;;;;;;-0.35;100.00;102512.70;1710871;83;20919;-54
2021/10/01 02:24:18;;;;;;;17.65;10.05;;;;;;;-0.36;100.00;102514.39;1701268;84;21019;-54
2021/10/01 02:26:50;;;;;;;16.00;9.78;;;;;;;-0.35;100.00;102517.42;1710977;83;21030;-54
2021/10/01 02:29:40;;;;;;;22.20;10.90;;;;;;;-0.35;100.00;102518.69;1701113;84;21835;-54
2021/10/01 02:32:15;;;;;;;22.62;12.15;;;;;;;-0.37;100.00;102520.27;1710371;83;20952;-53
2021/10/01 02:34:45;;;;;;;17.82;10.98;;;;;;;-0.38;100.00;102514.69;1681741;84;21032;-53
2021/10/01 02:37:14;;;;;;;17.65;10.53;;;;;;;-0.37;100.00;102520.27;1697367;84;21039;-53
2021/10/01 02:39:44;;;;;;;19.75;10.93;;;;;;;-0.35;100.00;102519.06;1710403;83;20963;-53
2021/10/01 02:42:11;;;;;;;15.32;11.30;;;;;;;-0.34;100.00;102520.83;1700809;84;21132;-53
2021/10/01 02:44:39;;;;;;;18.20;10.72;;;;;;;-0.35;100.00;102522.88;1710367;83;20928;-53
2021/10/01 02:47:07;;;;;;;12.90;9.10;;;;;;;-0.34;100.00;102522.09;1700848;84;20975;-53
2021/10/01 02:49:36;;;;;;;21.55;10.28;;;;;;;-0.36;100.00;102523.30;1683809;83;20986;-53
2021/10/01 02:52:14;;;;;;;19.12;11.93;;;;;;;-0.35;100.00;102522.88;1700791;84;20984;-53
2021/10/01 02:54:49;;;;;;;30.08;11.35;;;;;;;-0.35;100.00;102530.52;1710500;83;21172;-53
2021/10/01 02:57:20;;;;;;;24.07;12.45;;;;;;;-0.34;100.00;102522.98;1681054;85;20979;-53
2021/10/01 02:59:46;;;;;;;24.72;11.55;;;;;;;-0.33;100.00;102523.85;1700844;84;21106;-53
2021/10/01 03:02:14;;;;;;;18.07;10.55;;;;;;;-0.33;100.00;102526.39;1710463;83;20971;-53
2021/10/01 03:04:40;;;;;;;25.77;12.53;;;;;;;-0.33;100.00;102523.85;1674633;84;21051;-53
2021/10/01 03:07:07;;;;;;;20.05;11.78;;;;;;;-0.35;100.00;102525.05;1710532;82;21198;-53
2021/10/01 03:09:35;;;;;;;20.43;11.43;;;;;;;-0.34;100.00;102524.27;1700652;84;20991;-53
2021/10/01 03:12:04;;;;;;;16.50;10.10;;;;;;;-0.34;100.00;102524.27;1710389;83;20991;-53
2021/10/01 03:14:31;;;;;;;18.15;11.43;;;;;;;-0.36;100.00;102528.39;1700764;84;20999;-53
2021/10/01 03:16:59;;;;;;;23.70;11.03;;;;;;;-0.39;100.00;102530.72;1710460;83;21054;-53
2021/10/01 03:19:26;;;;;;;30.37;13.48;;;;;;;-0.40;100.00;102534.05;1684122;83;22040;-53
2021/10/01 03:21:55;;;;;;;23.98;13.15;;;;;;;-0.41;100.00;102532.30;1749174;81;20916;-53
2021/10/01 03:24:23;;;;;;;28.02;12.35;;;;;;;-0.42;100.00;102527.99;1749303;82;20992;-53
2021/10/01 03:26:54;;;;;;;33.38;16.93;;;;;;;-0.44;100.00;102529.57;1749210;82;20940;-53
2021/10/01 03:29:19;;;;;;;50.60;24.65;;;;;;;-0.45;100.00;102526.54;1748405;82;21501;-53
2021/10/01 03:31:47;;;;;;;40.10;20.50;;;;;;;-0.49;100.00;102528.05;1749312;82;21817;-53
2021/10/01 03:34:14;;;;;;;33.73;18.65;;;;;;;-0.50;100.00;102530.11;1749136;82;21046;-53
2021/10/01 03:36:41;;;;;;;43.65;17.60;;;;;;;-0.53;100.00;102530.30;1749346;82;20924;-53
2021/10/01 03:39:08;;;;;;;31.30;16.90;;;;;;;-0.54;100.00;102533.63;1698049;82;21475;-53
2021/10/01 03:41:35;;;;;;;27.98;14.83;;;;;;;-0.54;100.00;102530.67;1749172;82;21015;-53
2021/10/01 03:44:04;;;;;;;32.05;16.62;;;;;;;-0.52;100.00;102528.24;1749059;81;21108;-53
2021/10/01 03:46:31;;;;;;;28.30;14.58;;;;;;;-0.50;100.00;102539.39;1749282;82;20944;-53
2021/10/01 03:48:57;;;;;;;29.85;14.70;;;;;;;-0.48;100.00;102539.09;1749524;82;21387;-53
2021/10/01 03:51:24;;;;;;;27.82;14.80;;;;;;;-0.45;100.00;102540.54;1749178;82;21589;-53
2021/10/01 03:53:53;;;;;;;33.18;16.60;;;;;;;-0.43;100.00;102540.23;1721828;82;21454;-53
2021/10/01 03:56:20;;;;;;;35.60;18.57;;;;;;;-0.43;100.00;102540.23;1749447;82;21131;-54
2021/10/01 03:58:49;;;;;;;70.20;29.05;;;;;;;-0.41;100.00;102546.30;1721376;82;21469;-54
2021/10/01 04:01:15;;;;;;;44.03;22.32;;;;;;;-0.41;100.00;102545.02;1748910;81;20960;-54
2021/10/01 04:03:42;;;;;;;44.48;20.62;;;;;;;-0.40;100.00;102544.23;1749248;82;20909;-54
2021/10/01 04:06:09;;;;;;;38.13;20.80;;;;;;;-0.38;100.00;102546.51;1749284;81;21015;-54
2021/10/01 04:08:36;;;;;;;52.13;23.90;;;;;;;-0.36;100.00;102553.84;1749035;81;22485;-54
2021/10/01 04:11:03;;;;;;;68.40;28.52;;;;;;;-0.33;100.00;102555.67;1749213;82;21458;-54
2021/10/01 04:13:29;;;;;;;168.40;66.02;;;;;;;-0.30;100.00;102558.39;1749433;82;21505;-54
2021/10/01 04:15:56;;;;;;;213.28;84.37;;;;;;;-0.27;100.00;102566.21;1749331;82;21687;-54
2021/10/01 04:18:24;;;;;;;182.78;72.37;;;;;;;-0.26;100.00;102556.92;1746358;81;20988;-54
2021/10/01 04:20:51;;;;;;;174.53;71.17;;;;;;;-0.23;100.00;102557.10;1748959;82;22331;-54
2021/10/01 04:23:18;;;;;;;208.80;81.53;;;;;;;-0.21;100.00;102557.69;1721635;82;20940;-54
2021/10/01 04:25:48;;;;;;;226.77;86.15;;;;;;;-0.15;100.00;102557.16;1749133;82;20959;-53
2021/10/01 04:28:17;;;;;;;152.78;62.98;;;;;;;-0.09;100.00;102561.73;1749104;82;21580;-53
2021/10/01 04:30:47;;;;;;;196.72;75.25;;;;;;;-0.02;100.00;102564.75;1749519;82;22300;-53
2021/10/01 04:33:23;;;;;;;172.37;67.05;;;;;;;0.10;100.00;102561.14;1749251;82;21992;-53
2021/10/01 04:35:51;;;;;;;152.55;62.65;;;;;;;0.24;100.00;102564.12;1749115;81;20959;-53
2021/10/01 04:38:18;;;;;;;130.07;58.10;;;;;;;0.38;100.00;102556.37;1749004;82;21512;-53
2021/10/01 04:40:46;;;;;;;110.08;48.17;;;;;;;0.51;100.00;102564.35;1749164;81;20960;-53
2021/10/01 04:43:12;;;;;;;72.80;31.12;;;;;;;0.67;100.00;102560.99;1749102;82;21430;-54
2021/10/01 04:45:41;;;;;;;72.25;28.57;;;;;;;0.84;100.00;102565.34;1745383;82;21533;-53
2021/10/01 04:48:08;;;;;;;49.70;24.05;;;;;;;1.02;100.00;102565.02;1749145;82;20948;-53
2021/10/01 04:50:37;;;;;;;39.50;17.92;;;;;;;1.13;100.00;102558.81;1721268;82;21011;-54
2021/10/01 04:53:04;;;;;;;39.78;18.77;;;;;;;1.26;100.00;102565.45;1749041;82;20968;-54
2021/10/01 04:55:34;;;;;;;33.75;15.75;;;;;;;1.38;100.00;102562.27;1749327;82;20972;-54
2021/10/01 04:58:01;;;;;;;29.20;15.23;;;;;;;1.48;100.00;102562.78;1748948;82;21085;-53
2021/10/01 05:00:30;;;;;;;26.73;16.25;;;;;;;1.57;100.00;102564.14;1696847;82;21431;-53
2021/10/01 05:03:15;;;;;;;38.02;20.32;;;;;;;1.66;100.00;102563.75;1749066;82;20971;-53
2021/10/01 05:05:49;;;;;;;35.73;20.27;;;;;;;1.76;100.00;102570.60;1745301;82;20975;-54
2021/10/01 05:08:17;;;;;;;50.17;24.92;;;;;;;1.83;100.00;102569.73;1737992;82;20960;-53
2021/10/01 05:11:03;;;;;;;53.38;24.12;;;;;;;1.91;100.00;102577.80;1666080;84;21947;-54
2021/10/01 05:13:49;;;;;;;41.53;22.57;;;;;;;1.99;100.00;102579.05;1553412;92;21085;-54
2021/10/01 05:16:23;;;;;;;44.38;21.93;;;;;;;2.06;100.00;102575.52;1652368;82;21678;-54
2021/10/01 05:19:08;;;;;;;48.28;22.93;;;;;;;2.13;100.00;102573.75;1749018;81;20893;-54
2021/10/01 05:21:52;;;;;;;54.03;24.90;;;;;;;2.24;100.00;102574.28;1749060;82;20869;-54
2021/10/01 05:24:19;;;;;;;46.80;23.50;;;;;;;2.35;100.00;102581.21;1749125;82;21120;-54
2021/10/01 05:26:46;;;;;;;55.00;24.60;;;;;;;2.43;100.00;102584.62;1749246;82;20956;-54
2021/10/01 05:29:12;;;;;;;60.00;24.20;;;;;;;2.54;100.00;102589.41;1749178;81;20893;-54
2021/10/01 05:31:39;;;;;;;60.03;24.77;;;;;;;2.66;100.00;102585.30;1749403;82;21039;-54
2021/10/01 05:34:05;;;;;;;67.20;24.30;;;;;;;2.79;100.00;102590.60;1749245;82;20968;-54
2021/10/01 05:36:33;;;;;;;76.07;24.55;;;;;;;2.92;100.00;102590.36;1749202;82;21143;-54
2021/10/01 05:39:01;;;;;;;63.98;23.85;;;;;;;3.06;100.00;102596.13;1749128;82;21541;-54
2021/10/01 05:41:30;;;;;;;88.03;26.33;;;;;;;3.19;100.00;102587.76;1749184;82;21426;-54
2021/10/01 05:43:57;;;;;;;72.97;25.55;;;;;;;3.31;100.00;102587.03;1749139;82;20999;-54
2021/10/01 05:46:23;;;;;;;70.08;24.72;;;;;;;3.43;100.00;102589.27;1749440;82;21541;-54
2021/10/01 05:49:13;;;;;;;76.55;22.32;;;;;;;3.56;100.00;102585.58;1749439;82;21147;-54
2021/10/01 05:52:12;;;;;;;43.20;18.80;;;;;;;3.71;100.00;102595.23;1749010;81;21055;-54
2021/10/01 05:54:48;;;;;;;48.00;19.35;;;;;;;3.90;100.00;102590.89;1721337;82;21557;-54
2021/10/01 05:57:29;;;;;;;42.40;17.62;;;;;;;4.06;100.00;102595.41;1749134;82;20952;-54
2021/10/01 05:59:57;;;;;;;45.35;16.60;;;;;;;4.22;100.00;102592.70;1746831;82;20971;-54
2021/10/01 06:02:24;;;;;;;29.80;13.22;;;;;;;4.36;100.00;102594.55;1748843;82;21119;-54
2021/10/01 06:04:53;;;;;;;25.55;12.37;;;;;;;4.53;100.00;102595.25;1749203;82;21024;-54
2021/10/01 06:07:20;;;;;;;36.13;12.20;;;;;;;4.88;100.00;102592.34;1749443;80;21489;-54
2021/10/01 06:09:46;;;;;;;28.20;11.33;;;;;;;4.88;100.00;102592.34;1749454;82;21540;-54
2021/10/01 06:12:13;;;;;;;32.17;10.90;;;;;;;5.03;100.00;102585.64;1749214;82;21510;-54
2021/10/01 06:14:40;;;;;;;25.75;10.50;;;;;;;5.17;100.00;102588.31;1749340;82;21767;-54
2021/10/01 06:17:08;;;;;;;32.15;10.30;;;;;;;5.34;100.00;102587.23;1749219;82;20956;-54
2021/10/01 06:19:37;;;;;;;22.58;9.25;;;;;;;5.48;100.00;102583.46;1721478;82;20951;-54
2021/10/01 06:22:06;;;;;;;15.65;8.00;;;;;;;5.66;98.91;102592.24;1736726;81;21525;-54
2021/10/01 06:24:32;;;;;;;16.90;9.63;;;;;;;5.82;97.87;102596.27;1735318;82;21088;-54
2021/10/01 06:26:59;;;;;;;18.23;8.33;;;;;;;5.96;96.60;102595.46;1735416;82;21110;-54
2021/10/01 06:29:26;;;;;;;14.45;8.55;;;;;;;6.28;93.57;102589.28;1735215;82;20960;-54
2021/10/01 06:31:52;;;;;;;19.05;9.00;;;;;;;6.28;93.57;102589.28;1735240;81;20941;-54
2021/10/01 06:34:19;;;;;;;11.45;8.00;;;;;;;6.42;92.95;102594.00;1735138;82;20929;-54
2021/10/01 06:36:46;;;;;;;13.25;8.25;;;;;;;6.54;90.99;102599.56;1735309;82;20960;-54
2021/10/01 06:39:12;;;;;;;21.02;8.18;;;;;;;6.69;89.62;102604.73;1735224;82;21139;-54
2021/10/01 06:41:40;;;;;;;17.42;7.95;;;;;;;6.84;88.01;102597.94;1735142;82;20992;-54
2021/10/01 06:44:07;;;;;;;20.08;8.38;;;;;;;6.97;86.83;102596.19;1735086;81;20925;-54
2021/10/01 06:46:42;;;;;;;13.15;7.42;;;;;;;7.09;85.45;102586.67;1735140;82;21474;-54
2021/10/01 06:52:03;;;;;;;19.55;7.87;;;;;;;7.41;83.23;102590.60;1735777;82;21749;-54
2021/10/01 07:36:09;;;;;;;21.70;6.17;;;;;;;9.88;64.49;102585.21;1726051;82;21206;-53
2021/10/01 08:18:50;;;;;;;;;;;;;;;12.75;49.88;102548.95;1751844;82;21556;-52
2021/10/01 08:21:08;;;;;;;17.23;4.03;;;;;;;12.88;48.50;102553.38;1743892;81;20122;-53
2021/10/01 08:23:36;;;;;;;13.25;3.92;;;;;;;13.00;50.15;102555.58;1735163;81;22165;-53
2021/10/01 08:26:03;;;;;;;7.55;3.60;;;;;;;13.22;49.30;102539.66;1735432;82;21717;-52
2021/10/01 08:28:29;;;;;;;23.67;3.80;;;;;;;13.44;49.33;102548.87;1713956;82;21494;-52
2021/10/01 08:31:07;;;;;;;16.37;4.05;;;;;;;13.63;46.69;102546.73;1715975;82;20972;-52
2021/10/01 08:33:33;;;;;;;18.70;4.80;;;;;;;13.73;46.57;102539.81;1735113;82;20941;-52
2021/10/01 08:36:02;;;;;;;14.70;4.12;;;;;;;13.81;46.34;102541.58;1735194;82;21004;-55
2021/10/01 08:38:29;;;;;;;12.23;3.87;;;;;;;13.90;47.32;102537.67;1735312;82;21957;-53
2021/10/01 08:40:56;;;;;;;7.12;3.80;;;;;;;14.06;46.17;102538.54;1735293;82;20973;-52
2021/10/01 08:43:26;;;;;;;10.98;4.15;;;;;;;14.19;45.36;102528.98;1735140;82;20906;-54
2021/10/01 08:45:52;;;;;;;10.75;4.67;;;;;;;14.28;44.71;102531.61;1735414;82;21486;-53
2021/10/01 08:48:20;;;;;;;7.20;4.20;;;;;;;14.37;44.96;102532.89;1735424;82;21590;-53
2021/10/01 08:50:46;;;;;;;5.05;3.62;;;;;;;14.47;46.15;102520.72;1735178;82;22360;-53
2021/10/01 08:53:14;;;;;;;6.80;4.15;;;;;;;14.75;46.63;102524.58;1735019;82;21549;-53
2021/10/01 08:55:46;;;;;;;6.92;4.50;;;;;;;15.01;43.90;102520.12;1735129;82;21008;-52
2021/10/01 08:58:11;;;;;;;16.48;3.98;;;;;;;15.05;43.36;102521.87;1734913;82;20996;-53
2021/10/01 09:00:37;;;;;;;10.25;4.37;;;;;;;15.02;42.46;102514.04;1735236;82;20936;-53
2021/10/01 09:03:05;;;;;;;6.75;3.75;;;;;;;15.01;44.11;102515.80;1735158;82;21142;-53
2021/10/01 09:05:33;;;;;;;6.35;3.60;;;;;;;15.12;42.99;102508.34;1735271;82;21439;-54
2021/10/01 09:08:15;;;;;;;4.30;3.55;;;;;;;15.19;42.52;102510.07;1735079;82;20925;-54
2021/10/01 09:11:07;;;;;;;3.95;2.83;;;;;;;15.32;41.43;102501.28;1735113;82;20885;-54
2021/10/01 09:13:37;;;;;;;5.42;2.60;;;;;;;15.41;40.79;102498.19;1735018;82;20999;-54
2021/10/01 09:16:07;;;;;;;7.78;2.67;;;;;;;15.37;40.31;102501.27;1714548;82;21096;-53
2021/10/01 09:18:36;;;;;;;2.87;2.65;;;;;;;15.28;40.30;102500.00;1735057;82;20933;-54
2021/10/01 09:21:12;;;;;;;3.50;2.60;;;;;;;15.23;40.52;102496.98;1735858;81;21454;-54
2021/10/01 09:23:43;;;;;;;8.20;2.47;;;;;;;15.33;40.26;102493.04;1749028;82;20984;-54
2021/10/01 09:26:17;;;;;;;6.37;2.80;;;;;;;15.38;40.10;102493.87;1749141;82;20983;-54
2021/10/01 09:28:56;;;;;;;8.38;2.40;;;;;;;15.51;39.42;102486.38;1748908;82;21081;-54
2021/10/01 09:31:40;;;;;;;12.68;2.95;;;;;;;15.69;40.13;102484.52;1749275;81;20944;-53
2021/10/01 09:34:26;;;;;;;15.38;2.40;;;;;;;15.95;40.17;102474.33;1749135;82;21012;-53
2021/10/01 09:37:12;;;;;;;7.65;2.33;;;;;;;16.20;38.69;102480.20;1749529;82;20964;-53
2021/10/01 09:39:42;;;;;;;8.00;2.50;;;;;;;16.18;38.48;102483.70;1749589;82;20960;-54
2021/10/01 09:42:13;;;;;;;5.55;2.60;;;;;;;16.24;39.51;102475.78;1720841;82;21028;-53
2021/10/01 09:44:57;;;;;;;4.78;2.40;;;;;;;16.42;39.13;102469.95;1749122;82;21008;-53
2021/10/01 09:47:45;;;;;;;4.95;2.22;;;;;;;16.61;38.73;102467.98;1749522;82;21555;-53
2021/10/01 09:50:27;;;;;;;2.65;1.82;;;;;;;16.75;37.88;102467.81;1707069;82;21015;-53
2021/10/01 09:52:56;;;;;;;6.15;2.30;;;;;;;16.75;37.04;102468.69;1749358;82;20959;-53
2021/10/01 09:55:38;;;;;;;3.62;2.20;;;;;;;16.84;37.17;102467.72;1749539;82;21014;-53
2021/10/01 09:58:13;;;;;;;5.92;2.00;;;;;;;16.84;37.03;102464.22;1749237;82;21034;-53
2021/10/01 10:00:46;;;;;;;8.75;2.00;;;;;;;16.83;36.20;102457.26;1748437;82;20979;-53
2021/10/01 10:03:15;;;;;;;5.72;2.45;;;;;;;16.77;36.78;102460.81;1749233;82;21019;-53
2021/10/01 10:06:05;;;;;;;3.80;2.72;;;;;;;16.82;36.20;102451.19;1749476;82;20952;-53
2021/10/01 10:08:36;;;;;;;5.50;1.98;;;;;;;16.83;37.04;102451.60;1749328;81;21062;-53
2021/10/01 10:11:13;;;;;;;4.40;1.80;;;;;;;16.79;35.94;102453.81;1749513;82;20920;-53
2021/10/01 10:13:54;;;;;;;2.12;2.02;;;;;;;16.56;35.82;102447.14;1749307;82;20959;-53
2021/10/01 10:16:31;;;;;;;4.35;1.92;;;;;;;16.46;36.85;102446.39;1749350;82;20975;-53
2021/10/01 10:19:02;;;;;;;5.87;2.37;;;;;;;16.64;35.98;102443.11;1747858;82;21540;-53
2021/10/01 10:21:30;;;;;;;5.50;2.12;;;;;;;16.72;35.67;102443.02;1748454;81;20920;-53
2021/10/01 10:23:57;;;;;;;4.58;2.20;;;;;;;16.60;36.17;102437.07;1749251;82;20996;-53
2021/10/01 10:26:25;;;;;;;2.50;2.08;;;;;;;16.52;35.37;102437.58;1749227;82;20930;-52
2021/10/01 10:28:55;;;;;;;5.60;2.70;;;;;;;16.47;36.56;102440.27;1749185;82;21000;-53
2021/10/01 10:31:28;;;;;;;6.95;2.58;;;;;;;16.59;36.09;102437.95;1721579;82;20892;-53
2021/10/01 10:33:57;;;;;;;3.75;2.12;;;;;;;16.68;36.68;102440.91;1749188;82;21078;-53
2021/10/01 10:36:38;;;;;;;5.00;2.37;;;;;;;16.84;37.47;102428.48;1749195;82;20896;-53
2021/10/01 10:39:17;;;;;;;5.47;2.10;;;;;;;17.10;36.14;102436.45;1749219;82;21652;-53
2021/10/01 10:41:47;;;;;;;6.80;2.25;;;;;;;17.17;35.88;102435.89;1749257;80;20976;-53
2021/10/01 10:44:15;;;;;;;5.85;1.98;;;;;;;17.24;35.87;102429.23;1749308;82;21027;-53
2021/10/01 10:46:46;;;;;;;3.70;2.27;;;;;;;17.39;35.40;102435.13;1749134;82;21206;-53
2021/10/01 10:49:24;;;;;;;5.40;2.50;;;;;;;17.46;34.79;102426.75;1749279;82;20944;-53
2021/10/01 10:52:12;;;;;;;9.98;2.30;;;;;;;17.41;34.70;102438.59;1749226;82;21537;-53
2021/10/01 10:54:51;;;;;;;11.78;6.80;;;;;;;17.35;36.69;102430.84;1749278;82;20932;-53
2021/10/01 10:57:28;;;;;;;3.98;2.70;;;;;;;17.49;36.10;102423.61;1749258;82;20971;-53
2021/10/01 11:00:02;;;;;;;10.20;2.70;;;;;;;17.69;36.96;102418.50;1749139;82;21147;-53
2021/10/01 11:02:43;;;;;;;18.45;10.43;;;;;;;17.83;36.92;102416.94;1749188;81;20968;-54
2021/10/01 11:05:26;;;;;;;2.83;2.50;;;;;;;18.08;35.94;102417.83;1749298;82;21027;-53
2021/10/01 11:08:00;;;;;;;7.15;2.10;;;;;;;18.20;34.58;102415.42;1749341;82;21066;-53
2021/10/01 11:10:40;;;;;;;4.05;2.47;;;;;;;18.13;34.50;102412.52;1749372;82;20967;-53
2021/10/01 12:17:43;;;;;;;3.83;2.42;;;;;;;17.59;34.67;102369.34;1719553;82;20957;-53
2021/10/01 12:20:12;;;;;;;2.90;2.15;;;;;;;17.55;34.52;102358.95;1740257;82;21004;-53
2021/10/01 12:22:39;;;;;;;2.65;2.45;;;;;;;17.40;34.45;102374.05;1738976;82;20952;-52
2021/10/01 12:25:09;;;;;;;4.75;2.17;;;;;;;17.31;35.15;102370.28;1735082;82;21008;-53
2021/10/01 12:27:42;;;;;;;1.85;1.75;;;;;;;17.35;34.68;102370.65;1735178;82;22193;-53
2021/10/01 12:30:08;;;;;;;3.85;2.08;;;;;;;17.30;34.80;102366.78;1735355;81;21052;-52
2021/10/01 12:32:35;;;;;;;2.75;1.98;;;;;;;17.34;34.69;102362.37;1735247;82;21027;-52
2021/10/01 12:35:05;;;;;;;3.83;2.02;;;;;;;17.34;34.97;102351.45;1735199;82;21004;-52
2021/10/01 12:37:40;;;;;;;2.00;1.70;;;;;;;17.34;35.21;102357.98;1677604;82;20949;-52
2021/10/01 12:40:08;;;;;;;5.85;2.12;;;;;;;17.35;34.75;102358.87;1735205;82;21529;-52
2021/10/01 12:42:37;;;;;;;2.40;2.20;;;;;;;17.29;35.19;102361.56;1735146;82;20963;-53
2021/10/01 12:45:09;;;;;;;6.53;2.27;;;;;;;17.23;34.88;102356.86;1735178;82;20932;-53
2021/10/01 12:47:39;;;;;;;6.42;2.52;;;;;;;17.16;35.86;102358.28;1735127;82;21479;-53
2021/10/01 12:50:09;;;;;;;5.28;2.20;;;;;;;17.19;36.49;102353.88;1735090;82;21008;-53
2021/10/01 12:52:42;;;;;;;6.75;2.60;;;;;;;17.27;35.98;102353.75;1735112;82;20937;-53
2021/10/01 12:55:13;;;;;;;3.87;3.02;;;;;;;17.34;34.83;102351.45;1735140;82;21109;-53
2021/10/01 12:57:46;;;;;;;5.95;2.75;;;;;;;17.31;35.69;102346.73;1735093;82;20937;-52
2021/10/01 13:00:16;;;;;;;10.50;2.30;;;;;;;17.26;35.68;102349.84;1735046;82;20928;-53
2021/10/01 13:02:58;;;;;;;22.07;2.58;;;;;;;17.17;35.24;102351.73;1735045;82;21059;-53
2021/10/01 13:05:36;;;;;;;6.08;3.80;;;;;;;17.06;35.55;102346.67;1735096;82;21549;-52
2021/10/01 13:08:11;;;;;;;17.30;3.10;;;;;;;17.06;35.61;102349.74;1706224;82;21905;-53
2021/10/01 13:10:50;;;;;;;10.48;3.02;;;;;;;16.99;35.75;102342.86;1735284;82;20944;-53
2021/10/01 13:13:27;;;;;;;11.75;2.50;;;;;;;16.98;35.44;102335.86;1735255;82;21099;-54
2021/10/01 13:15:57;;;;;;;3.42;2.65;;;;;;;16.91;36.63;102344.24;1735128;82;20988;-53
2021/10/01 13:18:39;;;;;;;9.98;2.37;;;;;;;16.91;36.60;102345.13;1736930;81;20893;-54
2021/10/01 13:21:19;;;;;;;5.92;2.85;;;;;;;16.91;36.37;102341.20;1735341;82;21048;-54
2021/10/01 13:23:56;;;;;;;7.50;2.77;;;;;;;16.91;36.42;102341.63;1735206;82;20882;-54
2021/10/01 13:26:26;;;;;;;5.62;3.08;;;;;;;16.86;35.79;102332.56;1735312;81;20962;-53
2021/10/01 13:29:02;;;;;;;10.05;2.40;;;;;;;16.77;35.54;102340.53;1735040;82;21015;-54
2021/10/01 13:31:31;;;;;;;4.97;1.87;;;;;;;16.65;35.70;102341.56;1735151;81;21195;-54
2021/10/01 13:33:58;;;;;;;6.08;2.33;;;;;;;16.56;36.58;102337.78;1738822;82;21091;-54
2021/10/01 13:39:02;;;;;;;6.45;2.95;;;;;;;16.63;35.88;102333.77;1815467;79;22648;-52
2021/10/01 13:41:28;;;;;;;3.92;2.35;;;;;;;16.58;36.03;102329.05;1757777;80;21536;-53
2021/10/01 13:43:54;;;;;;;6.42;2.12;;;;;;;16.63;37.12;102329.84;1788539;80;21478;-53
2021/10/01 13:46:22;;;;;;;2.85;2.37;;;;;;;16.71;37.60;102330.16;1788817;80;20971;-54
2021/10/01 13:48:50;;;;;;;4.25;1.92;;;;;;;16.79;36.73;102329.59;1788485;80;20969;-53
2021/10/01 13:51:17;;;;;;;10.88;3.58;;;;;;;16.86;36.84;102327.33;1788515;80;20979;-53
2021/10/01 13:53:43;;;;;;;4.70;2.77;;;;;;;17.04;36.79;102326.20;1788727;80;20998;-53
2021/10/01 13:56:11;;;;;;;6.60;2.40;;;;;;;17.33;36.29;102320.09;1788608;80;21048;-53
2021/10/01 13:58:37;;;;;;;5.83;2.62;;;;;;;17.54;35.28;102318.83;1788510;80;20897;-53
2021/10/01 14:01:04;;;;;;;7.70;2.70;;;;;;;17.66;34.91;102313.81;1788552;79;20999;-53
2021/10/01 14:03:32;;;;;;;3.15;2.75;;;;;;;17.73;35.26;102318.03;1788453;80;20988;-53
2021/10/01 14:06:00;;;;;;;6.37;3.08;;;;;;;17.84;35.03;102320.45;1788613;80;20983;-53